Time;durP1;ratioP1;P1;durP2;ratioP2;P2;SDS_P1;SDS_P2;PMS_P1;PMS_P2;Temp;Humidity;BMP_temperature;BMP_pressure;BME280_temperature;BME280_humidity;BME280_pressure;Samples;Min_cycle;Max_cycle;Signal;HPM_P1;HPM_P2
2023/12/11 00:01:21;;;;;;;91.80;42.17;;;0.20;99.90;;;;;;5071288;28;20024;-76
2023/12/11 00:03:47;;;;;;;90.75;41.40;;;0.30;99.90;;;;;;5071624;28;20529;-77
2023/12/11 00:06:13;;;;;;;90.65;39.67;;;0.20;99.90;;;;;;5072628;28;20017;-80
2023/12/11 00:08:38;;;;;;;91.15;40.95;;;0.20;99.90;;;;;;5071141;28;20037;-76
2023/12/11 00:11:04;;;;;;;78.95;39.42;;;0.20;99.90;;;;;;5072570;28;20089;-80
2023/12/11 00:13:30;;;;;;;86.70;39.15;;;0.20;99.90;;;;;;5072373;28;20021;-76
2023/12/11 00:15:55;;;;;;;79.35;37.53;;;0.20;99.90;;;;;;5071399;28;20021;-77
2023/12/11 00:18:21;;;;;;;77.05;37.88;;;0.20;99.90;;;;;;5070901;28;20111;-80
2023/12/11 00:20:47;;;;;;;87.68;36.60;;;0.30;99.90;;;;;;5072611;28;20106;-76
2023/12/11 00:23:12;;;;;;;82.45;37.08;;;0.30;99.90;;;;;;5071065;28;20013;-78
2023/12/11 00:25:45;;;;;;;83.70;39.67;;;0.30;99.90;;;;;;5071291;28;20025;-77
2023/12/11 00:28:11;;;;;;;89.57;40.03;;;0.20;99.90;;;;;;5070948;28;20051;-81
2023/12/11 00:30:37;;;;;;;76.90;36.13;;;0.20;99.90;;;;;;5072370;28;20033;-80
2023/12/11 00:33:02;;;;;;;88.40;38.47;;;0.20;99.90;;;;;;5070748;28;20048;-76
2023/12/11 00:35:28;;;;;;;84.63;38.40;;;0.20;99.90;;;;;;5071131;28;20048;-76
2023/12/11 00:37:54;;;;;;;81.03;37.70;;;0.20;99.90;;;;;;5071991;28;20078;-80
2023/12/11 00:40:19;;;;;;;76.28;36.10;;;0.20;99.90;;;;;;5072369;28;20489;-80
2023/12/11 00:42:45;;;;;;;64.85;34.30;;;0.20;99.90;;;;;;5070799;28;20070;-76
2023/12/11 00:45:14;;;;;;;67.60;32.45;;;0.20;99.90;;;;;;5071140;28;20021;-76
2023/12/11 00:47:39;;;;;;;66.78;31.52;;;0.10;99.90;;;;;;5070694;28;20058;-81
2023/12/11 00:50:06;;;;;;;67.80;32.72;;;0.10;99.90;;;;;;5072412;28;20048;-76
2023/12/11 00:52:31;;;;;;;71.30;32.40;;;0.00;99.90;;;;;;5070649;28;20503;-76
2023/12/11 00:54:57;;;;;;;70.32;32.92;;;0.10;99.90;;;;;;5070949;28;20100;-76
2023/12/11 00:57:23;;;;;;;64.32;32.90;;;0.10;99.90;;;;;;5070581;28;20017;-81
2023/12/11 00:59:49;;;;;;;61.47;30.52;;;0.10;99.90;;;;;;5070792;28;20081;-75
2023/12/11 01:02:14;;;;;;;73.63;34.72;;;0.00;99.90;;;;;;5070639;28;20017;-79
2023/12/11 01:04:40;;;;;;;71.15;33.30;;;0.00;99.90;;;;;;5072106;28;20363;-80
2023/12/11 01:07:06;;;;;;;64.63;32.50;;;0.00;99.90;;;;;;5071730;28;20039;-79
2023/12/11 01:09:31;;;;;;;66.68;34.05;;;-0.10;99.90;;;;;;5070880;28;20029;-75
2023/12/11 01:11:57;;;;;;;61.30;30.30;;;-0.10;99.90;;;;;;5070458;28;20082;-75
2023/12/11 01:14:23;;;;;;;59.72;28.15;;;-0.10;99.90;;;;;;5072041;28;20060;-75
2023/12/11 01:16:49;;;;;;;50.80;26.05;;;-0.10;99.90;;;;;;5074766;28;20028;-79
2023/12/11 01:19:15;;;;;;;56.58;27.67;;;-0.10;99.90;;;;;;5075822;28;20027;-79
2023/12/11 01:21:41;;;;;;;56.97;28.60;;;-0.10;99.90;;;;;;5075264;28;20029;-75
2023/12/11 01:24:06;;;;;;;66.35;31.23;;;-0.10;99.90;;;;;;5074260;28;20024;-75
2023/12/11 01:26:32;;;;;;;74.45;35.15;;;-0.10;99.90;;;;;;5073992;28;20033;-80
2023/12/11 01:28:58;;;;;;;63.47;31.98;;;-0.10;99.90;;;;;;5074356;28;20107;-79
2023/12/11 01:31:24;;;;;;;51.83;27.58;;;-0.10;99.90;;;;;;5075027;28;20386;-75
2023/12/11 01:33:49;;;;;;;41.28;21.50;;;-0.10;99.90;;;;;;5074093;28;20061;-79
2023/12/11 01:36:15;;;;;;;49.28;23.33;;;-0.10;99.90;;;;;;5073979;28;20024;-80
2023/12/11 01:38:40;;;;;;;49.55;23.35;;;0.00;99.90;;;;;;5075369;28;20032;-75
2023/12/11 01:41:06;;;;;;;43.05;21.00;;;-0.10;99.90;;;;;;5073717;28;20036;-75
2023/12/11 01:43:32;;;;;;;46.78;22.25;;;0.00;99.90;;;;;;5073853;28;20055;-75
2023/12/11 01:46:03;;;;;;;48.88;20.70;;;0.00;99.90;;;;;;5074800;28;20471;-79
2023/12/11 01:48:29;;;;;;;36.58;20.15;;;-0.10;99.90;;;;;;5074122;28;20474;-79
2023/12/11 01:50:55;;;;;;;40.67;21.45;;;0.00;99.90;;;;;;5073572;28;20078;-78
2023/12/11 01:53:21;;;;;;;50.47;20.35;;;0.00;99.90;;;;;;5074470;28;20031;-80
2023/12/11 01:55:49;;;;;;;37.55;18.23;;;0.00;99.90;;;;;;5071914;28;20066;-75
2023/12/11 01:58:16;;;;;;;43.03;18.58;;;0.00;99.90;;;;;;5074348;28;20036;-75
2023/12/11 02:00:42;;;;;;;39.95;19.17;;;0.00;99.90;;;;;;5073023;28;20023;-76
2023/12/11 02:03:09;;;;;;;40.95;20.25;;;0.00;99.90;;;;;;5073252;28;20017;-76
2023/12/11 02:05:36;;;;;;;40.03;19.20;;;0.00;99.90;;;;;;5073403;28;20028;-75
2023/12/11 02:08:01;;;;;;;35.28;17.55;;;0.00;99.90;;;;;;5073114;28;20013;-79
2023/12/11 02:10:27;;;;;;;38.33;19.85;;;0.00;99.90;;;;;;5074720;28;20508;-80
2023/12/11 02:12:53;;;;;;;41.63;20.10;;;0.00;99.90;;;;;;5073904;28;20561;-79
2023/12/11 02:15:37;;;;;;;37.95;19.27;;;0.00;99.90;;;;;;5074468;28;20032;-75
2023/12/11 02:18:03;;;;;;;47.42;22.83;;;0.00;99.90;;;;;;5073061;28;20028;-76
2023/12/11 02:20:29;;;;;;;44.17;19.05;;;0.00;99.90;;;;;;5073020;28;20500;-75
2023/12/11 02:23:00;;;;;;;38.30;18.60;;;0.00;99.90;;;;;;5072625;28;20017;-80
2023/12/11 02:25:27;;;;;;;39.70;17.42;;;-0.10;99.90;;;;;;5073177;28;20021;-76
2023/12/11 02:27:53;;;;;;;37.25;16.23;;;0.00;99.90;;;;;;5071769;28;20108;-77
2023/12/11 02:30:18;;;;;;;34.88;18.88;;;0.00;99.90;;;;;;5072515;28;20059;-75
2023/12/11 02:32:44;;;;;;;40.33;20.08;;;0.00;99.90;;;;;;5072737;28;20063;-80
2023/12/11 02:35:09;;;;;;;38.17;17.55;;;0.00;99.90;;;;;;5073698;28;20033;-79
2023/12/11 02:37:35;;;;;;;33.90;16.30;;;0.00;99.90;;;;;;5072854;28;20062;-80
2023/12/11 02:40:01;;;;;;;40.15;17.60;;;-0.10;99.90;;;;;;5074018;28;20016;-75
2023/12/11 02:42:26;;;;;;;33.67;14.38;;;0.00;99.90;;;;;;5072567;28;20504;-75
2023/12/11 02:44:52;;;;;;;27.80;12.63;;;0.00;99.90;;;;;;5072617;28;20066;-79
2023/12/11 02:47:18;;;;;;;27.90;14.05;;;0.00;99.90;;;;;;5073908;28;20059;-80
2023/12/11 02:49:43;;;;;;;34.33;17.33;;;0.00;99.90;;;;;;5072460;28;20031;-76
2023/12/11 02:52:09;;;;;;;25.30;13.05;;;0.00;99.90;;;;;;5072512;28;20051;-76
2023/12/11 02:54:35;;;;;;;34.88;15.32;;;0.10;99.90;;;;;;5072478;28;20054;-80
2023/12/11 02:57:00;;;;;;;34.05;18.38;;;0.10;99.90;;;;;;5073629;28;20028;-76
2023/12/11 02:59:26;;;;;;;37.75;18.20;;;0.10;99.90;;;;;;5072119;28;20024;-80
2023/12/11 03:01:52;;;;;;;34.45;17.13;;;0.10;99.90;;;;;;5072392;28;20044;-80
2023/12/11 03:04:17;;;;;;;31.77;16.02;;;0.10;99.90;;;;;;5071777;28;20012;-74
2023/12/11 03:06:43;;;;;;;29.05;14.55;;;0.10;99.90;;;;;;5072181;28;20044;-74
2023/12/11 03:09:09;;;;;;;25.17;12.43;;;0.10;99.90;;;;;;5071900;28;20086;-75
2023/12/11 03:11:34;;;;;;;27.42;16.27;;;0.10;99.90;;;;;;5072024;28;20057;-76
2023/12/11 03:14:00;;;;;;;24.35;12.18;;;0.10;99.90;;;;;;5073026;28;20091;-80
2023/12/11 03:16:25;;;;;;;21.30;11.05;;;0.10;99.90;;;;;;5071969;28;20470;-80
2023/12/11 03:18:51;;;;;;;20.58;9.75;;;0.20;99.90;;;;;;5071814;28;20485;-75
2023/12/11 03:21:17;;;;;;;20.52;10.57;;;0.10;99.90;;;;;;5073314;28;20031;-80
2023/12/11 03:23:43;;;;;;;20.50;9.77;;;0.10;99.90;;;;;;5073152;28;20020;-80
2023/12/11 03:26:09;;;;;;;22.52;10.48;;;0.20;99.90;;;;;;5073325;28;20031;-75
2023/12/11 03:28:35;;;;;;;20.85;11.65;;;0.20;99.90;;;;;;5071625;28;20013;-75
2023/12/11 03:31:00;;;;;;;22.45;11.23;;;0.20;99.90;;;;;;5071917;28;20037;-80
2023/12/11 03:33:26;;;;;;;19.08;11.10;;;0.20;99.90;;;;;;5070875;28;20429;-80
2023/12/11 03:35:52;;;;;;;18.38;11.25;;;0.20;99.90;;;;;;5072971;28;20028;-79
2023/12/11 03:38:17;;;;;;;27.25;11.48;;;0.20;99.90;;;;;;5071389;28;20463;-79
2023/12/11 03:40:43;;;;;;;20.13;10.23;;;0.20;99.90;;;;;;5071775;28;20023;-75
2023/12/11 03:43:10;;;;;;;19.40;8.90;;;0.30;99.90;;;;;;5071005;28;20059;-80
2023/12/11 03:45:35;;;;;;;19.40;9.95;;;0.30;99.90;;;;;;5071547;28;20021;-80
2023/12/11 03:48:01;;;;;;;23.75;8.93;;;0.30;99.90;;;;;;5072719;28;20031;-80
2023/12/11 03:50:27;;;;;;;21.92;10.05;;;0.30;99.90;;;;;;5071618;28;20020;-76
2023/12/11 03:52:52;;;;;;;19.10;9.25;;;0.30;99.90;;;;;;5072801;28;20016;-75
2023/12/11 03:55:18;;;;;;;16.83;8.25;;;0.30;99.90;;;;;;5071692;28;20029;-80
2023/12/11 03:57:44;;;;;;;20.25;9.43;;;0.30;99.90;;;;;;5072605;28;20426;-80
2023/12/11 04:00:10;;;;;;;19.25;9.68;;;0.40;99.90;;;;;;5072669;28;20107;-76
2023/12/11 04:02:36;;;;;;;23.23;12.02;;;0.40;99.90;;;;;;5070557;28;20026;-75
2023/12/11 04:05:01;;;;;;;18.92;11.75;;;0.40;99.90;;;;;;5071301;28;20048;-75
2023/12/11 04:07:28;;;;;;;24.42;13.93;;;0.40;99.90;;;;;;5072293;28;20024;-80
2023/12/11 04:09:53;;;;;;;48.60;22.55;;;0.40;99.90;;;;;;5072516;28;20095;-80
2023/12/11 04:12:19;;;;;;;41.85;22.40;;;0.40;99.90;;;;;;5072292;28;20111;-80
2023/12/11 04:14:45;;;;;;;25.15;13.25;;;0.40;99.90;;;;;;5072614;28;20012;-76
2023/12/11 04:17:10;;;;;;;21.33;11.10;;;0.40;99.90;;;;;;5072527;28;20020;-76
2023/12/11 04:19:36;;;;;;;25.17;13.57;;;0.40;99.90;;;;;;5071264;28;20036;-76
2023/12/11 04:22:02;;;;;;;25.83;12.00;;;0.40;99.90;;;;;;5071150;28;20485;-79
2023/12/11 04:24:27;;;;;;;25.40;14.10;;;0.40;99.90;;;;;;5071197;28;20105;-74
2023/12/11 04:26:53;;;;;;;109.43;45.55;;;0.40;99.90;;;;;;5071019;28;20013;-79
2023/12/11 04:29:18;;;;;;;46.05;21.13;;;0.40;99.90;;;;;;5071101;28;20020;-79
2023/12/11 04:31:44;;;;;;;38.75;20.55;;;0.40;99.90;;;;;;5070818;28;20068;-76
2023/12/11 04:34:10;;;;;;;33.08;17.55;;;0.40;99.90;;;;;;5071033;28;20017;-80
2023/12/11 04:36:35;;;;;;;26.98;12.43;;;0.40;99.90;;;;;;5071012;28;20021;-75
2023/12/11 04:39:02;;;;;;;16.63;10.43;;;0.40;99.90;;;;;;5071069;28;20055;-80
2023/12/11 04:41:28;;;;;;;20.27;10.63;;;0.50;99.90;;;;;;5070757;28;20107;-75
2023/12/11 04:43:54;;;;;;;18.70;9.25;;;0.50;99.90;;;;;;5072255;28;20060;-80
2023/12/11 04:46:20;;;;;;;19.88;10.20;;;0.50;99.90;;;;;;5070820;28;20021;-80
2023/12/11 04:48:46;;;;;;;31.23;12.93;;;0.50;99.90;;;;;;5070909;28;20147;-80
2023/12/11 04:51:11;;;;;;;39.67;15.35;;;0.50;99.90;;;;;;5073025;28;20107;-76
2023/12/11 04:53:37;;;;;;;58.22;24.88;;;0.40;99.90;;;;;;5075994;28;20024;-81
2023/12/11 04:56:07;;;;;;;60.90;29.95;;;0.50;99.90;;;;;;5076194;28;20097;-81
2023/12/11 04:58:32;;;;;;;51.00;23.13;;;0.50;99.90;;;;;;5074700;28;20054;-80
2023/12/11 05:00:58;;;;;;;69.05;30.00;;;0.50;99.90;;;;;;5076024;28;20425;-81
2023/12/11 05:03:24;;;;;;;68.63;31.80;;;0.40;99.90;;;;;;5075483;28;20109;-75
2023/12/11 05:05:49;;;;;;;58.53;26.58;;;0.40;99.90;;;;;;5074382;28;20016;-80
2023/12/11 05:08:15;;;;;;;47.97;22.33;;;0.40;99.90;;;;;;5075955;28;20025;-80
2023/12/11 05:10:41;;;;;;;41.97;20.02;;;0.30;99.90;;;;;;5075465;28;20024;-79
2023/12/11 05:13:07;;;;;;;42.35;19.55;;;0.40;99.90;;;;;;5075811;28;20053;-75
2023/12/11 05:15:33;;;;;;;27.10;12.98;;;0.40;99.90;;;;;;5074214;28;20033;-80
2023/12/11 05:17:59;;;;;;;22.92;10.73;;;0.40;99.90;;;;;;5075763;28;20013;-75
2023/12/11 05:20:24;;;;;;;36.78;16.75;;;0.40;99.90;;;;;;5073971;28;20028;-75
2023/12/11 05:22:50;;;;;;;43.55;19.48;;;0.40;99.90;;;;;;5074375;28;20456;-75
2023/12/11 05:25:16;;;;;;;25.33;12.75;;;0.40;99.90;;;;;;5075286;28;20024;-75
2023/12/11 05:27:41;;;;;;;23.38;12.75;;;0.40;99.90;;;;;;5074088;28;20031;-75
2023/12/11 05:30:08;;;;;;;27.10;11.40;;;0.40;99.90;;;;;;5074274;28;20020;-80
2023/12/11 05:32:33;;;;;;;20.85;10.80;;;0.40;99.90;;;;;;5075161;28;20067;-75
2023/12/11 05:34:59;;;;;;;29.17;13.93;;;0.40;99.90;;;;;;5073879;28;20024;-75
2023/12/11 05:37:25;;;;;;;24.30;11.77;;;0.40;99.90;;;;;;5074008;28;20055;-80
2023/12/11 05:39:50;;;;;;;19.80;10.75;;;0.40;99.90;;;;;;5075080;28;20017;-75
2023/12/11 05:42:16;;;;;;;16.92;9.88;;;0.40;99.90;;;;;;5074072;28;20031;-80
2023/12/11 05:44:41;;;;;;;24.23;9.25;;;0.40;99.90;;;;;;5074905;28;20024;-75
2023/12/11 05:47:07;;;;;;;30.60;13.13;;;0.40;99.90;;;;;;5075161;28;20551;-80
2023/12/11 05:49:33;;;;;;;22.52;9.93;;;0.40;99.90;;;;;;5075115;28;20523;-79
2023/12/11 05:51:59;;;;;;;12.77;8.32;;;0.40;99.90;;;;;;5075175;28;20025;-80
2023/12/11 05:54:24;;;;;;;15.90;7.82;;;0.40;99.90;;;;;;5072504;28;20458;-80
2023/12/11 05:56:50;;;;;;;33.70;15.68;;;0.50;99.90;;;;;;5073760;28;20481;-80
2023/12/11 05:59:16;;;;;;;58.08;23.60;;;0.50;99.90;;;;;;5074675;28;20029;-75
2023/12/11 06:01:41;;;;;;;15.02;7.68;;;0.60;99.90;;;;;;5073030;28;20028;-80
2023/12/11 06:04:07;;;;;;;24.38;9.77;;;0.60;99.90;;;;;;5073409;28;20036;-76
2023/12/11 06:06:33;;;;;;;21.45;11.63;;;0.70;99.90;;;;;;5073129;28;20125;-80
2023/12/11 06:08:58;;;;;;;20.52;8.48;;;0.70;99.90;;;;;;5074093;28;20024;-80
2023/12/11 06:11:24;;;;;;;13.15;7.20;;;0.70;99.90;;;;;;5074329;28;20047;-76
2023/12/11 06:13:50;;;;;;;13.88;7.10;;;0.70;99.90;;;;;;5072948;28;20063;-80
2023/12/11 06:16:16;;;;;;;16.08;8.10;;;0.70;99.90;;;;;;5074468;28;20063;-81
2023/12/11 06:18:41;;;;;;;16.10;8.60;;;0.70;99.90;;;;;;5076153;28;20016;-76
2023/12/11 06:21:20;;;;;;;15.32;8.10;;;0.70;99.90;;;;;;5072990;28;20457;-76
2023/12/11 06:23:46;;;;;;;17.60;10.55;;;0.70;99.90;;;;;;5074487;28;20062;-80
2023/12/11 06:26:31;;;;;;;31.73;11.60;;;0.70;99.90;;;;;;5074134;28;20024;-79
2023/12/11 06:28:59;;;;;;;19.10;9.93;;;0.70;99.90;;;;;;5072883;28;20385;-81
2023/12/11 06:31:25;;;;;;;19.58;10.57;;;0.80;99.90;;;;;;5074161;28;20028;-76
2023/12/11 06:33:51;;;;;;;25.25;10.23;;;0.80;99.90;;;;;;5068321;28;20041;-76
2023/12/11 06:36:17;;;;;;;20.77;9.57;;;0.80;99.90;;;;;;5067115;28;20103;-76
2023/12/11 06:38:43;;;;;;;16.98;7.97;;;0.90;99.90;;;;;;5071654;28;20020;-80
2023/12/11 06:41:09;;;;;;;13.95;6.97;;;0.90;99.90;;;;;;5072097;28;20017;-76
2023/12/11 06:43:35;;;;;;;16.52;8.10;;;1.00;99.90;;;;;;5070573;28;20043;-80
2023/12/11 06:46:02;;;;;;;15.60;9.05;;;1.00;99.90;;;;;;5071840;28;20021;-76
2023/12/11 06:48:29;;;;;;;20.42;9.70;;;1.00;99.90;;;;;;5075442;28;20071;-80
2023/12/11 06:50:55;;;;;;;25.02;11.40;;;1.10;99.90;;;;;;5070146;28;20067;-80
2023/12/11 06:53:20;;;;;;;19.42;10.52;;;1.10;99.90;;;;;;5071743;28;20044;-80
2023/12/11 06:55:46;;;;;;;23.92;10.32;;;1.10;99.90;;;;;;5072456;28;20023;-80
2023/12/11 06:58:12;;;;;;;18.83;9.35;;;1.20;99.90;;;;;;5072159;28;20070;-80
2023/12/11 07:00:38;;;;;;;23.75;10.85;;;1.20;99.90;;;;;;5073505;28;20091;-80
2023/12/11 07:03:04;;;;;;;22.02;10.65;;;1.30;99.90;;;;;;5073298;28;20531;-80
2023/12/11 07:05:29;;;;;;;17.40;8.50;;;1.30;99.90;;;;;;5072976;28;20025;-80
2023/12/11 07:07:55;;;;;;;22.40;11.68;;;1.30;99.90;;;;;;5070983;28;20032;-76
2023/12/11 07:10:21;;;;;;;85.22;36.97;;;1.30;99.90;;;;;;5071538;28;20375;-76
2023/12/11 07:12:47;;;;;;;21.90;11.60;;;1.40;99.90;;;;;;5071318;28;20035;-76
2023/12/11 07:15:13;;;;;;;23.35;11.07;;;1.40;99.90;;;;;;5071716;28;20009;-76
2023/12/11 07:17:38;;;;;;;19.83;8.52;;;1.50;99.90;;;;;;5073008;28;20025;-76
2023/12/11 07:20:05;;;;;;;15.93;9.35;;;1.50;99.90;;;;;;5071461;28;20111;-76
2023/12/11 07:22:34;;;;;;;18.20;8.32;;;1.60;99.90;;;;;;5071763;28;20062;-76
2023/12/11 07:25:00;;;;;;;13.55;8.73;;;1.60;99.90;;;;;;5072298;28;20442;-76
2023/12/11 07:27:26;;;;;;;18.25;9.75;;;1.70;99.90;;;;;;5070617;28;20027;-77
2023/12/11 07:29:52;;;;;;;15.95;7.53;;;1.70;99.90;;;;;;5072540;28;20024;-76
2023/12/11 07:32:18;;;;;;;14.30;8.85;;;1.70;99.90;;;;;;5072742;28;20090;-77
2023/12/11 07:34:44;;;;;;;14.25;8.13;;;1.70;99.90;;;;;;5058390;28;20025;-77
2023/12/11 07:37:10;;;;;;;21.27;10.25;;;1.80;99.90;;;;;;5071116;28;20031;-76
2023/12/11 07:39:35;;;;;;;15.43;8.93;;;1.80;99.90;;;;;;5072675;28;20462;-77
2023/12/11 07:42:01;;;;;;;15.65;8.10;;;1.80;99.90;;;;;;5072598;28;20020;-79
2023/12/11 07:44:27;;;;;;;19.25;9.75;;;1.90;99.90;;;;;;5072436;28;20496;-80
2023/12/11 07:46:52;;;;;;;16.58;8.43;;;2.00;99.90;;;;;;5070692;28;20107;-80
2023/12/11 07:49:18;;;;;;;17.23;7.70;;;2.00;99.90;;;;;;5071360;28;20059;-80
2023/12/11 07:51:44;;;;;;;12.95;8.48;;;2.10;99.90;;;;;;5072255;28;20432;-80
2023/12/11 07:54:10;;;;;;;12.10;7.70;;;2.20;99.90;;;;;;5070847;28;20469;-80
2023/12/11 07:56:37;;;;;;;20.17;7.63;;;2.20;99.90;;;;;;5072335;28;20035;-80
2023/12/11 07:59:03;;;;;;;18.05;9.13;;;2.20;99.90;;;;;;5072640;28;20089;-77
2023/12/11 08:01:32;;;;;;;14.63;7.50;;;2.30;99.90;;;;;;5071042;28;20123;-77
2023/12/11 08:03:58;;;;;;;10.68;6.97;;;2.30;99.90;;;;;;5054262;28;20020;-76
2023/12/11 08:06:24;;;;;;;11.15;7.07;;;2.30;99.90;;;;;;5071318;28;20047;-76
2023/12/11 08:08:50;;;;;;;9.95;6.03;;;2.40;99.90;;;;;;5072515;28;20098;-80
2023/12/11 08:11:29;;;;;;;10.23;6.57;;;2.40;99.90;;;;;;5072181;28;20024;-76
2023/12/11 08:13:55;;;;;;;8.15;5.25;;;2.50;99.90;;;;;;5070762;28;20099;-80
2023/12/11 08:16:23;;;;;;;11.80;6.95;;;2.60;99.90;;;;;;5071088;28;20021;-80
2023/12/11 08:18:48;;;;;;;11.02;5.60;;;2.60;99.90;;;;;;5072401;28;20013;-80
2023/12/11 08:21:17;;;;;;;10.70;5.70;;;2.70;99.90;;;;;;5071167;28;20024;-76
2023/12/11 08:23:44;;;;;;;13.02;6.90;;;2.70;99.90;;;;;;5066468;28;20028;-80
2023/12/11 08:26:10;;;;;;;11.93;5.65;;;2.80;99.90;;;;;;5074720;28;20032;-76
2023/12/11 08:28:36;;;;;;;12.63;6.38;;;2.80;99.90;;;;;;5075863;28;20016;-76
2023/12/11 08:31:03;;;;;;;11.70;6.50;;;2.80;99.90;;;;;;5075020;28;20036;-76
2023/12/11 08:33:29;;;;;;;13.48;7.60;;;2.90;99.90;;;;;;5074789;28;20063;-80
2023/12/11 08:35:55;;;;;;;10.10;6.13;;;2.90;99.90;;;;;;5076379;28;20092;-80
2023/12/11 08:38:22;;;;;;;8.90;6.10;;;3.00;99.90;;;;;;5075702;28;20103;-79
2023/12/11 08:40:49;;;;;;;14.05;7.47;;;3.10;99.90;;;;;;5074984;28;20012;-80
2023/12/11 08:43:15;;;;;;;9.18;5.95;;;3.10;99.90;;;;;;5074788;28;20055;-76
2023/12/11 08:45:41;;;;;;;14.32;6.75;;;3.20;99.90;;;;;;5069664;28;20028;-76
2023/12/11 08:48:06;;;;;;;13.10;6.72;;;3.20;99.90;;;;;;5074714;28;20043;-76
2023/12/11 08:50:32;;;;;;;10.90;5.82;;;3.40;99.90;;;;;;5068203;28;20017;-76
2023/12/11 08:53:01;;;;;;;9.32;5.93;;;3.50;99.90;;;;;;5073371;28;20040;-76
2023/12/11 08:55:30;;;;;;;10.45;6.55;;;3.70;99.90;;;;;;5073057;28;20020;-77
2023/12/11 08:57:56;;;;;;;10.55;6.00;;;3.80;99.90;;;;;;5073077;28;20028;-76
2023/12/11 09:00:22;;;;;;;10.60;6.45;;;3.90;99.90;;;;;;5065025;28;20115;-77
2023/12/11 09:02:48;;;;;;;9.18;5.65;;;3.90;99.90;;;;;;5075376;28;20054;-77
2023/12/11 09:05:14;;;;;;;12.27;5.90;;;3.90;99.90;;;;;;5074479;28;20066;-81
2023/12/11 09:07:40;;;;;;;9.13;5.43;;;3.90;99.90;;;;;;5074309;28;20413;-81
2023/12/11 09:10:08;;;;;;;9.15;5.78;;;4.00;99.90;;;;;;5074284;28;20518;-81
2023/12/11 09:12:34;;;;;;;7.43;5.00;;;4.00;99.90;;;;;;5073655;28;20029;-81
2023/12/11 09:15:00;;;;;;;8.43;4.78;;;4.00;99.90;;;;;;5074382;28;20012;-81
2023/12/11 09:17:25;;;;;;;7.88;5.07;;;4.10;99.90;;;;;;5075142;28;20096;-82
2023/12/11 09:19:51;;;;;;;8.40;5.30;;;4.10;99.90;;;;;;5074328;28;20134;-77
2023/12/11 09:22:17;;;;;;;8.57;5.43;;;4.10;99.90;;;;;;5073650;28;20028;-81
2023/12/11 09:24:42;;;;;;;7.43;4.18;;;4.20;99.90;;;;;;5073589;28;20032;-81
2023/12/11 09:27:08;;;;;;;7.72;4.25;;;4.20;99.90;;;;;;5074546;28;20033;-77
2023/12/11 09:29:34;;;;;;;9.68;4.88;;;4.30;99.90;;;;;;5073116;28;20478;-77
2023/12/11 09:32:00;;;;;;;5.82;4.28;;;4.30;99.90;;;;;;5072645;28;20060;-77
2023/12/11 09:34:26;;;;;;;6.80;4.78;;;4.30;99.90;;;;;;5075407;28;20082;-78
2023/12/11 09:36:52;;;;;;;7.75;4.68;;;4.40;99.90;;;;;;5072602;28;20027;-81
2023/12/11 09:39:17;;;;;;;6.90;4.78;;;4.40;99.90;;;;;;5074000;28;20020;-77
2023/12/11 09:41:44;;;;;;;7.45;4.50;;;4.50;99.90;;;;;;5073472;28;20393;-82
2023/12/11 09:44:10;;;;;;;8.23;4.47;;;4.50;99.90;;;;;;5073813;28;20021;-77
2023/12/11 09:47:08;;;;;;;11.23;5.07;;;4.60;99.90;;;;;;5073606;28;20017;-81
2023/12/11 09:49:33;;;;;;;6.38;4.32;;;4.50;99.90;;;;;;5068209;28;20111;-78
2023/12/11 09:52:00;;;;;;;9.27;5.10;;;4.60;99.90;;;;;;5073756;28;20055;-81
2023/12/11 09:54:26;;;;;;;7.20;4.45;;;4.60;99.90;;;;;;5073227;28;20103;-82
2023/12/11 09:56:53;;;;;;;5.88;4.05;;;4.60;99.90;;;;;;5073507;28;20023;-82
2023/12/11 09:59:19;;;;;;;7.55;4.20;;;4.50;99.90;;;;;;5074927;28;20500;-82
2023/12/11 10:01:47;;;;;;;11.80;6.03;;;4.60;99.90;;;;;;5073370;28;20023;-77
2023/12/11 10:04:13;;;;;;;7.00;4.05;;;4.70;99.90;;;;;;5073247;28;20393;-82
2023/12/11 10:06:39;;;;;;;8.75;4.55;;;4.80;99.90;;;;;;5072941;28;20013;-77
2023/12/11 10:09:05;;;;;;;9.15;5.03;;;4.80;99.90;;;;;;5072966;28;20027;-77
2023/12/11 10:11:31;;;;;;;11.15;4.00;;;4.90;99.90;;;;;;5073099;28;20036;-77
2023/12/11 10:14:13;;;;;;;6.95;4.43;;;5.00;99.90;;;;;;5073199;28;20409;-77
2023/12/11 10:16:39;;;;;;;9.93;4.70;;;5.00;99.90;;;;;;5065905;28;20381;-82
2023/12/11 10:19:05;;;;;;;6.72;5.05;;;5.10;99.90;;;;;;5073577;28;20096;-82
2023/12/11 10:21:41;;;;;;;7.20;3.80;;;5.10;99.90;;;;;;5072916;28;20139;-81
2023/12/11 10:24:14;;;;;;;7.10;5.20;;;5.00;99.90;;;;;;5070543;28;20115;-77
2023/12/11 10:26:53;;;;;;;9.02;4.00;;;4.90;99.90;;;;;;5072698;28;20043;-81
2023/12/11 10:29:31;;;;;;;6.15;3.88;;;4.90;99.90;;;;;;5072313;28;20486;-81
2023/12/11 10:32:02;;;;;;;16.00;7.97;;;4.90;99.90;;;;;;5072418;28;20021;-81
2023/12/11 10:34:45;;;;;;;11.38;5.88;;;4.90;99.90;;;;;;5073961;28;20150;-81
2023/12/11 10:37:17;;;;;;;7.43;4.45;;;4.80;99.90;;;;;;5071354;28;20078;-81
2023/12/11 10:39:53;;;;;;;8.43;4.40;;;4.70;99.90;;;;;;5072765;28;20052;-82
2023/12/11 10:42:18;;;;;;;7.50;5.40;;;4.60;99.90;;;;;;5072710;28;20032;-82
2023/12/11 10:44:44;;;;;;;8.35;4.10;;;4.60;99.90;;;;;;5073526;28;20021;-77
2023/12/11 10:47:10;;;;;;;6.28;4.10;;;4.50;99.90;;;;;;5071459;28;20104;-77
2023/12/11 10:49:36;;;;;;;9.13;4.82;;;4.50;99.90;;;;;;5071794;28;20095;-77
2023/12/11 10:52:03;;;;;;;6.97;3.75;;;4.40;99.90;;;;;;5071674;28;20170;-77
2023/12/11 10:54:29;;;;;;;15.88;6.60;;;4.40;99.90;;;;;;5071299;28;20017;-77
2023/12/11 10:56:57;;;;;;;7.60;4.10;;;4.30;99.90;;;;;;5072869;28;20054;-77
2023/12/11 10:59:23;;;;;;;8.93;4.90;;;4.30;99.90;;;;;;5071467;28;20052;-77
2023/12/11 11:01:50;;;;;;;5.72;4.43;;;4.30;99.90;;;;;;5071705;28;20105;-77
2023/12/11 11:04:18;;;;;;;7.18;4.15;;;4.30;99.90;;;;;;5072824;28;20021;-82
2023/12/11 11:07:12;;;;;;;7.75;4.47;;;4.30;99.90;;;;;;5073168;28;20382;-77
2023/12/11 11:09:41;;;;;;;7.63;3.63;;;4.40;99.90;;;;;;5069728;28;20041;-81
2023/12/11 11:12:29;;;;;;;7.35;4.63;;;4.40;99.90;;;;;;5074277;28;20063;-77
2023/12/11 11:14:54;;;;;;;7.55;4.03;;;4.50;99.90;;;;;;5065477;28;20038;-77
2023/12/11 11:17:20;;;;;;;6.75;4.25;;;4.50;99.90;;;;;;5068643;28;20068;-77
2023/12/11 11:20:15;;;;;;;6.05;4.43;;;4.60;99.90;;;;;;5071025;28;20048;-77
2023/12/11 11:22:41;;;;;;;9.10;3.75;;;4.70;99.90;;;;;;5062602;28;20517;-77
2023/12/11 11:25:29;;;;;;;4.47;3.58;;;4.80;99.90;;;;;;5067982;28;20064;-77
2023/12/11 11:27:55;;;;;;;8.68;4.55;;;4.80;99.90;;;;;;5066111;28;20033;-77
2023/12/11 11:30:43;;;;;;;6.93;4.43;;;4.80;99.90;;;;;;5059268;28;20398;-77
2023/12/11 11:33:09;;;;;;;7.57;4.63;;;4.90;99.90;;;;;;5067097;28;20051;-77
2023/12/11 11:35:49;;;;;;;8.98;4.63;;;4.90;99.90;;;;;;5069331;28;20020;-77
2023/12/11 11:38:16;;;;;;;8.10;3.58;;;4.90;99.90;;;;;;5062192;28;20115;-77
2023/12/11 11:40:45;;;;;;;10.00;4.50;;;4.90;99.90;;;;;;5068687;28;20477;-77
2023/12/11 11:43:12;;;;;;;5.13;3.80;;;5.00;99.90;;;;;;5070139;28;20036;-77
2023/12/11 11:45:38;;;;;;;10.23;3.80;;;4.90;99.90;;;;;;5068842;28;20108;-76
2023/12/11 11:48:04;;;;;;;10.32;5.35;;;5.00;99.90;;;;;;5070789;28;20043;-80
2023/12/11 11:50:30;;;;;;;8.48;4.38;;;5.00;99.90;;;;;;5072460;28;20020;-77
2023/12/11 11:53:05;;;;;;;9.35;3.92;;;5.00;99.90;;;;;;5072870;28;20032;-80
2023/12/11 11:55:32;;;;;;;7.72;4.35;;;5.10;99.90;;;;;;5072573;28;20012;-77
2023/12/11 11:57:57;;;;;;;6.30;4.43;;;5.00;99.90;;;;;;5070539;28;20029;-77
2023/12/11 12:00:24;;;;;;;5.70;4.00;;;5.10;99.90;;;;;;5070893;28;20385;-77
2023/12/11 12:03:00;;;;;;;7.18;3.78;;;5.10;99.90;;;;;;5072454;28;20481;-81
2023/12/11 12:05:26;;;;;;;7.18;4.15;;;5.10;99.90;;;;;;5071156;28;20073;-77
2023/12/11 12:07:52;;;;;;;8.43;4.57;;;5.10;99.90;;;;;;5071140;28;20440;-77
2023/12/11 12:10:19;;;;;;;6.60;4.50;;;5.10;99.90;;;;;;5071009;28;20107;-77
2023/12/11 12:12:51;;;;;;;7.15;4.40;;;5.10;99.90;;;;;;5071217;28;20036;-82
2023/12/11 12:15:17;;;;;;;6.97;4.38;;;5.10;99.90;;;;;;5071184;28;20051;-77
2023/12/11 12:17:45;;;;;;;6.22;4.60;;;5.10;99.90;;;;;;5071245;28;20163;-81
2023/12/11 12:20:16;;;;;;;7.32;3.95;;;5.10;99.90;;;;;;5068759;28;20075;-76
2023/12/11 12:23:15;;;;;;;10.00;5.28;;;5.10;99.90;;;;;;5074205;28;20036;-77
2023/12/11 12:25:40;;;;;;;6.18;5.00;;;5.10;99.90;;;;;;5038602;28;20040;-77
2023/12/11 12:28:08;;;;;;;9.20;5.10;;;5.00;99.90;;;;;;5070847;28;20116;-76
2023/12/11 12:30:34;;;;;;;8.57;5.03;;;5.00;99.90;;;;;;5072973;28;20028;-82
2023/12/11 12:33:03;;;;;;;9.20;4.75;;;5.00;99.90;;;;;;5074053;28;20513;-81
2023/12/11 12:35:31;;;;;;;9.57;4.65;;;5.00;99.90;;;;;;5071857;28;20082;-82
2023/12/11 12:37:57;;;;;;;7.30;4.20;;;5.00;99.90;;;;;;5072097;28;20032;-82
2023/12/11 12:40:23;;;;;;;9.32;5.03;;;5.00;99.90;;;;;;5071694;28;20482;-77
2023/12/11 12:42:49;;;;;;;7.47;4.28;;;5.00;99.90;;;;;;5070457;28;20027;-76